Latest Weather Observations for Kyabram

IDV60801

Issued at 4:35 pm EST Saturday 2 August 2014 (issued every 30 minutes, with the page automatically refreshed every 10 minutes)

About weather observations | Map of weather stations | Latest weather observations for VIC | Other Formats
Station Details ID: 080091 Name: KYABRAM Lat: -36.34 Lon: 145.06 Height: 105.0 m
Data from the previous 72 hours. | See also: Recent months at Kyabram
Date/Time
EST
Temp
°C
App
Temp
°C
Dew
Point
Rel
Hum
%
Delta-T
°C
Wind Press
QNH
hPa
Press
MSL
hPa
Rain
since 9 am
mm
Dir
 
Spd
km/h
Gust
km/h
Spd
kts
Gust
kts
02/04:30pm 9.5 8.0 2.8 63 2.9 WSW 0 6 0 3 - - 0.0
02/04:00pm 10.8 8.4 2.4 56 3.6 S 4 9 2 5 - - 0.0
02/03:30pm 9.1 7.1 2.4 63 2.8 S 2 7 1 4 - - 0.0
02/03:00pm 10.2 7.3 2.6 59 3.3 S 7 13 4 7 - - 0.0
02/02:30pm 11.6 9.4 3.4 57 3.6 SSW 4 11 2 6 - - 0.0
02/02:00pm 10.7 8.2 3.5 61 3.2 SSE 6 15 3 8 - - 0.0
02/01:30pm 10.4 7.2 3.2 61 3.1 S 9 15 5 8 - - 0.0
02/01:00pm 10.2 6.7 3.5 63 2.9 SSW 11 20 6 11 - - 0.0
02/12:30pm 10.3 6.9 4.2 66 2.7 SSW 11 17 6 9 - - 0.0
02/12:00pm 9.4 6.0 4.0 69 2.4 SSW 11 17 6 9 - - 0.0
02/11:30am 9.1 5.9 4.9 75 1.9 S 11 17 6 9 - - 0.0
02/11:00am 8.2 5.3 4.4 77 1.7 SSW 9 15 5 8 - - 0.0
02/10:30am 7.5 4.8 3.7 77 1.6 WSW 7 11 4 6 - - 0.0
02/10:00am 6.3 3.6 3.8 84 1.1 SW 7 13 4 7 - - 0.0
02/09:30am 4.8 2.1 3.5 91 0.5 SW 7 9 4 5 - - 0.0
02/09:00am 3.3 1.8 2.9 97 0.2 CALM 0 0 0 0 - - 0.2
02/08:30am 1.4 -1.7 1.3 99 0.0 W 7 9 4 5 - - 0.0
02/08:00am 0.2 -3.1 0.1 99 0.0 W 7 9 4 5 - - 0.0
02/07:30am -0.6 -4.0 -0.7 99 0.0 WNW 7 9 4 5 - - 0.0
02/07:00am -0.9 -3.0 -1.0 99 0.0 CALM 0 4 0 2 - - 0.0
02/06:30am -1.0 -3.1 -1.1 99 0.0 CALM 0 0 0 0 - - 0.0
02/06:00am -0.9 -3.0 -1.0 99 0.0 SW 0 0 0 0 - - 0.0
02/05:30am 0.0 -3.1 -0.1 99 0.0 W 6 9 3 5 - - 0.0
02/05:00am 0.8 -2.4 0.7 99 0.0 W 7 11 4 6 - - 0.0
02/04:30am 0.6 -3.0 0.5 99 0.0 W 9 13 5 7 - - 0.0
02/04:00am 0.3 -3.0 0.2 99 0.0 W 7 11 4 6 - - 0.0
02/03:30am 0.4 -3.2 0.3 99 0.0 W 9 13 5 7 - - 0.0
02/03:00am 0.5 -2.8 0.4 99 0.0 W 7 11 4 6 - - 0.0
02/02:30am 0.7 -2.5 0.6 99 0.0 W 7 11 4 6 - - 0.0
02/02:00am 1.0 -2.2 0.9 99 0.0 W 7 11 4 6 - - 0.0
02/01:30am 1.1 -2.1 1.0 99 0.0 W 7 11 4 6 - - 0.0
02/01:00am 1.0 -2.2 0.9 99 0.0 W 7 11 4 6 - - 0.0
02/12:30am 1.2 -1.9 1.1 99 0.0 W 7 9 4 5 - - 0.0
02/12:00am 1.4 -2.1 1.1 98 0.1 W 9 13 5 7 - - 0.0
 
Date/Time
EST
Temp
°C
App
Temp
°C
Dew
Point
Rel
Hum
%
Delta-T
°C
Wind Press
QNH
hPa
Press
MSL
hPa
Rain
since 9 am
mm
Dir
 
Spd
km/h
Gust
km/h
Spd
kts
Gust
kts
01/11:30pm 1.7 -1.3 1.0 95 0.3 W 6 9 3 5 - - 0.0
01/11:00pm 2.7 -0.7 1.8 94 0.4 WSW 9 13 5 7 - - 0.0
01/10:30pm 2.7 -0.7 2.0 95 0.3 W 9 19 5 10 - - 0.0
01/10:00pm 2.7 -0.3 2.1 96 0.2 WSW 7 11 4 6 - - 0.0
01/09:30pm 2.5 -0.5 1.8 95 0.3 W 7 11 4 6 - - 0.0
01/09:00pm 2.9 -0.1 2.0 94 0.4 W 7 11 4 6 - - 0.0
01/08:30pm 3.4 0.4 2.1 91 0.5 W 7 11 4 6 - - 0.0
01/08:00pm 4.5 0.4 2.5 87 0.8 W 13 20 7 11 - - 0.0
01/07:30pm 4.7 1.1 2.7 87 0.8 W 11 22 6 12 - - 0.0
01/07:00pm 4.9 1.2 2.6 85 0.9 W 11 20 6 11 - - 0.0
01/06:30pm 5.6 1.6 2.6 81 1.2 W 13 20 7 11 - - 0.0
01/06:00pm 6.2 2.2 2.7 78 1.5 W 13 22 7 12 - - 0.0
01/05:30pm 6.6 3.0 2.9 77 1.5 W 11 26 6 14 - - 0.0
01/05:00pm 6.9 2.1 2.4 73 1.9 WSW 17 30 9 16 - - 0.0
01/04:30pm 8.2 3.1 2.9 69 2.3 WSW 19 30 10 16 - - 0.0
01/04:00pm 8.1 3.8 3.4 72 2.0 SW 15 26 8 14 - - 0.0
01/03:30pm 8.7 3.5 3.7 71 2.2 SW 20 37 11 20 - - 0.0
01/03:00pm 10.6 6.2 4.9 68 2.6 WSW 17 30 9 16 - - 0.0
01/02:30pm 9.4 4.3 4.2 70 2.3 WSW 20 37 11 20 - - 0.0
01/02:00pm 9.4 4.1 5.2 75 1.9 W 22 41 12 22 - - 0.0
01/01:30pm 8.6 3.9 5.0 78 1.6 W 19 37 10 20 - - 0.0
01/01:00pm 9.1 3.8 5.1 76 1.8 W 22 41 12 22 - - 0.0
01/12:30pm 8.8 3.5 5.0 77 1.7 WNW 22 35 12 19 - - 0.0
01/12:00pm 7.8 2.7 4.2 78 1.6 WNW 20 37 11 20 - - 0.0
01/11:30am 7.5 2.1 4.5 81 1.3 WNW 22 44 12 24 - - 0.0
01/11:00am 7.6 2.8 4.9 83 1.2 WNW 19 35 10 19 - - 0.0
01/10:30am 6.9 2.1 4.9 87 0.9 WNW 19 37 10 20 - - 0.0
01/10:00am 6.3 1.9 4.8 90 0.7 WNW 17 32 9 17 - - 0.0
01/09:30am 6.7 2.7 4.9 88 0.8 WNW 15 26 8 14 - - 0.0
01/09:00am 5.3 0.3 3.8 90 0.6 WNW 19 33 10 18 - - 2.4
01/08:30am 5.4 1.3 4.2 92 0.5 NW 15 26 8 14 - - 2.4
01/08:00am 4.7 0.1 3.8 94 0.4 WNW 17 26 9 14 - - 2.4
01/07:30am 4.0 0.1 3.3 95 0.3 WNW 13 22 7 12 - - 2.4
01/07:00am 3.9 -0.1 3.0 94 0.4 NW 13 24 7 13 - - 2.4
01/06:30am 4.2 -0.1 3.5 95 0.3 WNW 15 24 8 13 - - 2.4
01/06:00am 4.3 0.1 4.0 98 0.1 NW 15 24 8 13 - - 2.4
01/05:30am 4.3 0.6 4.2 99 0.0 NW 13 20 7 11 - - 2.4
01/05:00am 4.4 0.3 4.1 98 0.1 NW 15 24 8 13 - - 2.4
01/04:30am 4.6 0.4 4.0 96 0.3 WNW 15 26 8 14 - - 2.2
01/04:00am 4.6 0.9 4.2 97 0.2 WNW 13 28 7 15 - - 2.2
01/03:30am 4.5 0.7 4.1 97 0.2 WNW 13 20 7 11 - - 2.2
01/03:00am 4.5 1.1 3.9 96 0.3 NW 11 20 6 11 - - 2.2
01/02:30am 4.6 0.8 4.0 96 0.3 WNW 13 19 7 10 - - 2.2
01/02:00am 4.6 1.2 4.0 96 0.3 WNW 11 19 6 10 - - 2.2
01/01:30am 4.8 1.8 4.2 96 0.3 WNW 9 15 5 8 - - 2.2
01/01:00am 5.1 2.2 4.5 96 0.3 NW 9 19 5 10 - - 2.2
01/12:30am 5.4 2.9 4.5 94 0.4 NW 7 15 4 8 - - 2.2
01/12:00am 6.2 3.4 5.0 92 0.5 WNW 9 19 5 10 - - 2.2
 
Date/Time
EST
Temp
°C
App
Temp
°C
Dew
Point
Rel
Hum
%
Delta-T
°C
Wind Press
QNH
hPa
Press
MSL
hPa
Rain
since 9 am
mm
Dir
 
Spd
km/h
Gust
km/h
Spd
kts
Gust
kts
31/11:30pm 6.4 3.6 5.2 92 0.5 WNW 9 13 5 7 - - 2.2
31/11:00pm 6.7 2.8 5.2 90 0.7 W 15 28 8 15 - - 2.2
31/10:30pm 7.3 3.6 6.4 94 0.4 W 15 28 8 15 - - 2.0
31/10:00pm 7.4 4.3 7.3 99 0.0 WNW 13 24 7 13 - - 2.0
31/09:30pm 7.4 4.7 7.3 99 0.0 WNW 11 19 6 10 - - 2.0
31/09:00pm 7.4 4.7 7.3 99 0.0 W 11 20 6 11 - - 1.8
31/08:30pm 7.5 5.1 7.1 97 0.2 W 9 20 5 11 - - 1.4
31/08:00pm 8.5 5.1 6.1 85 1.1 W 13 20 7 11 - - 0.0
31/07:30pm 9.5 5.3 5.7 77 1.7 WSW 17 35 9 19 - - 0.0
31/07:00pm 9.9 5.6 5.3 73 2.1 WSW 17 28 9 15 - - 0.0
31/06:30pm 11.4 5.2 6.1 70 2.5 SW 28 54 15 29 - - 0.0
31/06:00pm 14.0 8.1 7.3 64 3.3 W 28 54 15 29 - - 0.0
31/05:30pm 18.0 11.2 3.1 37 6.9 NNW 28 48 15 26 - - 0.0
31/05:00pm 17.5 11.7 4.5 42 6.2 NNW 24 39 13 21 - - 0.0
31/04:30pm 18.3 12.6 4.8 41 6.5 NW 24 41 13 22 - - 0.0
31/04:11pm 18.8 12.1 3.8 37 7.1 NW 28 48 15 26 - - 0.0
31/04:00pm 18.8 12.7 4.9 40 6.7 NW 26 46 14 25 - - 0.0
31/03:35pm 19.2 11.8 3.8 36 7.3 NW 32 50 17 27 - - 0.0
31/03:30pm 19.2 11.9 4.6 38 7.1 NW 32 48 17 26 - - 0.0
31/03:09pm 19.3 12.4 4.6 38 7.1 NW 30 54 16 29 - - 0.0
31/03:00pm 19.4 12.7 5.8 41 6.7 NW 30 46 16 25 - - 0.0
31/02:30pm 19.5 13.1 5.2 39 7.0 NW 28 46 15 25 - - 0.0
31/02:00pm 19.1 11.9 4.8 39 6.9 NW 32 54 17 29 - - 0.0
31/01:30pm 19.1 11.0 5.2 40 6.8 NW 37 65 20 35 - - 0.0
31/01:00pm 18.6 11.5 6.4 45 6.1 NNW 33 52 18 28 - - 0.0
31/12:30pm 18.0 10.0 5.9 45 6.0 NNW 37 56 20 30 - - 0.0
31/12:27pm 18.0 10.3 7.1 49 5.5 NNW 37 56 20 30 - - 0.0
31/12:00pm 17.3 10.5 7.6 53 4.9 NNW 33 48 18 26 - - 0.0
31/11:33am 16.5 8.7 6.6 52 4.9 NNW 37 59 20 32 - - 0.0
31/11:30am 16.5 9.2 7.4 55 4.6 NNW 35 48 19 26 - - 0.0
31/11:00am 16.1 9.2 7.3 56 4.4 NNW 33 57 18 31 - - 0.0
31/10:51am 15.7 7.8 6.2 53 4.6 NNW 37 57 20 31 - - 0.0
31/10:30am 15.4 8.5 7.2 58 4.1 NNW 33 46 18 25 - - 0.0
31/10:00am 14.3 7.5 6.9 61 3.6 NNW 32 48 17 26 - - 0.0
31/09:30am 13.1 8.5 8.0 71 2.5 N 22 33 12 18 - - 0.0
31/09:00am 10.9 7.2 8.0 82 1.4 N 17 26 9 14 - - 0.0
31/08:30am 9.5 5.3 7.6 88 0.9 N 19 28 10 15 - - 0.0
31/08:00am 8.9 4.7 7.5 91 0.7 N 19 32 10 17 - - 0.0
31/07:30am 8.4 4.5 7.3 93 0.5 NNE 17 20 9 11 - - 0.0
31/07:00am 8.8 5.0 7.7 93 0.5 N 17 26 9 14 - - 0.0
31/06:30am 9.7 6.1 8.3 91 0.7 N 17 24 9 13 - - 0.0
31/06:00am 10.0 6.5 8.6 91 0.7 N 17 24 9 13 - - 0.0
31/05:30am 9.9 6.3 8.5 91 0.7 N 17 20 9 11 - - 0.0
31/05:00am 10.3 7.2 8.9 91 0.7 N 15 20 8 11 - - 0.0
31/04:30am 10.9 7.9 9.2 89 0.9 N 15 20 8 11 - - 0.0
31/04:00am 11.1 8.5 9.2 88 1.0 N 13 22 7 12 - - 0.0
31/03:30am 11.5 9.2 9.1 85 1.2 N 11 17 6 9 - - 0.0
31/03:00am 12.1 9.5 9.5 84 1.3 N 13 20 7 11 - - 0.0
31/02:30am 12.4 9.5 9.6 83 1.4 N 15 20 8 11 - - 0.0
31/02:00am 11.8 8.5 9.5 86 1.2 N 17 20 9 11 - - 0.0
31/01:30am 11.2 8.6 9.3 88 1.0 N 13 19 7 10 - - 0.0
31/01:00am 11.7 9.1 9.4 86 1.2 N 13 19 7 10 - - 0.0
31/12:30am 11.5 8.9 9.4 87 1.1 N 13 19 7 10 - - 0.0
31/12:00am 11.8 9.4 9.9 88 1.0 N 13 19 7 10 - - 0.0
 
Date/Time
EST
Temp
°C
App
Temp
°C
Dew
Point
Rel
Hum
%
Delta-T
°C
Wind Press
QNH
hPa
Press
MSL
hPa
Rain
since 9 am
mm
Dir
 
Spd
km/h
Gust
km/h
Spd
kts
Gust
kts
30/11:30pm 11.8 9.8 10.2 90 0.8 N 11 17 6 9 - - 0.0
30/11:00pm 11.3 9.7 10.2 93 0.6 N 9 13 5 7 - - 0.0
30/10:30pm 11.5 9.4 9.8 89 0.9 N 11 17 6 9 - - 0.0
30/10:00pm 12.2 10.2 10.3 88 1.0 N 11 15 6 8 - - 0.0
30/09:30pm 12.4 9.6 10.1 86 1.2 N 15 20 8 11 - - 0.0
30/09:00pm 12.7 10.1 10.6 87 1.1 N 15 20 8 11 - - 0.0
30/08:30pm 12.7 10.0 10.2 85 1.3 N 15 20 8 11 - - 0.0
30/08:00pm 13.4 10.4 10.8 84 1.4 N 17 20 9 11 - - 0.0
30/07:30pm 13.9 11.0 10.9 82 1.6 N 17 20 9 11 - - 0.0
30/07:00pm 14.1 11.2 10.9 81 1.7 N 17 22 9 12 - - 0.0
30/06:30pm 14.7 11.4 10.9 78 2.0 NNW 19 24 10 13 - - 0.0
30/06:00pm 14.9 12.7 10.9 77 2.1 NNW 13 20 7 11 - - 0.0
30/05:30pm 15.1 12.6 11.1 77 2.1 NNW 15 20 8 11 - - 0.0
30/05:00pm 15.4 12.6 11.2 76 2.3 NNW 17 24 9 13 - - 0.0

Other Formats:

Comma delimited format used in spreadsheet applications
http://www.bom.gov.au/fwo/IDV60801/IDV60801.95833.axf

JavaScript Object Notation format (JSON) in row-major order
http://www.bom.gov.au/fwo/IDV60801/IDV60801.95833.json